createdAt,value
2018-06-25T00:00:31.115Z,28.31
2018-06-25T00:01:31.116Z,28.69
2018-06-25T00:02:31.116Z,28.12
2018-06-25T00:03:31.119Z,28.12
2018-06-25T00:04:31.113Z,28.22
2018-06-25T00:05:31.109Z,28.41
2018-06-25T00:06:31.114Z,28.59
2018-06-25T00:07:31.106Z,28.12
2018-06-25T00:08:31.104Z,27.45
2018-06-25T00:09:31.105Z,27.45
2018-06-25T00:10:31.100Z,27.45
2018-06-25T00:11:31.100Z,27.36
2018-06-25T00:12:31.096Z,27.45
2018-06-25T00:13:31.095Z,27.25
2018-06-25T00:14:31.093Z,26.87
2018-06-25T00:15:31.092Z,26.48
2018-06-25T00:16:31.091Z,27.05
2018-06-25T00:17:31.088Z,26.57
2018-06-25T00:18:31.086Z,26.00
2018-06-25T00:19:31.089Z,26.00
2018-06-25T00:20:31.082Z,25.52
2018-06-25T00:21:31.082Z,25.71
2018-06-25T00:22:31.082Z,25.43
2018-06-25T00:23:31.077Z,25.14
2018-06-25T00:24:31.075Z,25.04
2018-06-25T00:25:31.076Z,24.57
2018-06-25T00:26:31.073Z,24.57
2018-06-25T00:27:31.071Z,23.90
2018-06-25T00:28:31.068Z,23.52
2018-06-25T00:29:31.067Z,23.13
2018-06-25T00:30:31.066Z,22.85
2018-06-25T00:31:31.062Z,21.89
2018-06-25T00:32:31.059Z,21.03
2018-06-25T00:33:31.058Z,20.46
2018-06-25T00:34:31.057Z,19.89
2018-06-25T00:35:31.055Z,19.02
2018-06-25T00:36:31.051Z,19.12
2018-06-25T00:37:31.052Z,19.40
2018-06-25T00:38:31.051Z,18.74
2018-06-25T00:39:31.047Z,18.16
2018-06-25T00:40:31.046Z,17.97
2018-06-25T00:41:31.045Z,17.30
2018-06-25T00:42:31.041Z,17.20
2018-06-25T00:43:31.041Z,16.92
2018-06-25T00:44:31.035Z,16.53
2018-06-25T00:45:31.033Z,16.06
2018-06-25T00:46:31.034Z,15.87
2018-06-25T00:47:31.032Z,15.96
2018-06-25T00:48:31.028Z,15.48
2018-06-25T00:49:31.026Z,15.09
2018-06-25T00:50:31.026Z,15.19
2018-06-25T00:51:31.020Z,15.48
2018-06-25T00:52:31.016Z,14.81
2018-06-25T00:53:31.018Z,14.90
2018-06-25T00:54:31.015Z,14.72
2018-06-25T00:55:31.014Z,13.85
2018-06-25T00:56:31.011Z,13.95
2018-06-25T00:57:31.010Z,13.18
2018-06-25T00:58:31.010Z,12.80
2018-06-25T00:59:31.005Z,12.32
2018-06-25T01:00:31.003Z,12.04
2018-06-25T01:01:31.003Z,11.94
2018-06-25T01:02:31.002Z,11.56
2018-06-25T01:03:30.997Z,11.46
2018-06-25T01:04:30.996Z,11.27
2018-06-25T01:05:30.992Z,10.99
2018-06-25T01:06:30.993Z,11.08
2018-06-25T01:07:30.993Z,10.89
2018-06-25T01:08:30.984Z,10.31
2018-06-25T01:09:30.984Z,10.31
2018-06-25T01:10:30.982Z,10.51
2018-06-25T01:11:30.978Z,10.41
2018-06-25T01:12:30.977Z,10.23
2018-06-25T01:13:30.977Z,10.31
2018-06-25T01:14:30.972Z,10.22
2018-06-25T01:15:30.971Z,10.22
2018-06-25T01:16:30.964Z,10.42
2018-06-25T01:17:30.967Z,10.13
2018-06-25T01:18:30.965Z,10.52
2018-06-25T01:19:30.962Z,10.99
2018-06-25T01:20:30.958Z,11.18
2018-06-25T01:21:30.962Z,11.28
2018-06-25T01:22:30.956Z,11.38
2018-06-25T01:23:30.956Z,11.76
2018-06-25T01:24:30.952Z,11.47
2018-06-25T01:25:30.948Z,11.57
2018-06-25T01:26:30.947Z,11.28
2018-06-25T01:27:30.949Z,12.04
2018-06-25T01:28:30.942Z,12.24
2018-06-25T01:29:30.941Z,12.14
2018-06-25T01:30:30.944Z,12.43
2018-06-25T01:31:30.939Z,12.62
2018-06-25T01:32:30.934Z,13.00
2018-06-25T01:33:30.934Z,12.90
2018-06-25T01:34:30.931Z,13.09
2018-06-25T01:35:30.930Z,13.57
2018-06-25T01:36:30.926Z,13.48
2018-06-25T01:37:30.925Z,13.38
2018-06-25T01:38:30.925Z,13.76
2018-06-25T01:39:30.921Z,13.86
2018-06-25T01:40:30.918Z,13.76
2018-06-25T01:41:30.920Z,13.95
2018-06-25T01:42:30.915Z,13.95
2018-06-25T01:43:30.911Z,13.95
2018-06-25T01:44:30.910Z,13.86
2018-06-25T01:45:30.908Z,14.72
2018-06-25T01:46:30.908Z,14.81
2018-06-25T01:47:30.904Z,14.91
2018-06-25T01:48:30.904Z,14.81
2018-06-25T01:49:30.906Z,15.10
2018-06-25T01:50:30.903Z,15.20
2018-06-25T01:51:30.895Z,14.91
2018-06-25T01:52:30.903Z,14.81
2018-06-25T01:53:30.893Z,14.24
2018-06-25T01:54:30.890Z,14.15
2018-06-25T01:55:30.892Z,14.05
2018-06-25T01:56:30.888Z,13.95
2018-06-25T01:57:30.886Z,14.05
2018-06-25T01:58:30.885Z,14.15
2018-06-25T01:59:30.881Z,14.34
2018-06-25T02:00:30.877Z,14.91
2018-06-25T02:01:30.878Z,15.77
2018-06-25T02:02:30.877Z,15.77
2018-06-25T02:03:30.874Z,16.25
2018-06-25T02:04:30.871Z,16.73
2018-06-25T02:05:30.872Z,16.92
2018-06-25T02:06:30.865Z,17.02
2018-06-25T02:07:30.867Z,17.21
2018-06-25T02:08:30.865Z,17.40
2018-06-25T02:09:30.862Z,17.21
2018-06-25T02:10:30.859Z,17.29
2018-06-25T02:11:30.866Z,17.10
2018-06-25T02:12:30.857Z,16.82
2018-06-25T02:13:30.855Z,16.72
2018-06-25T02:14:30.861Z,16.73
2018-06-25T02:15:30.851Z,16.06
2018-06-25T02:16:30.850Z,16.53
2018-06-25T02:17:30.848Z,16.44
2018-06-25T02:18:30.846Z,16.82
2018-06-25T02:19:30.844Z,16.92
2018-06-25T02:20:30.843Z,16.82
2018-06-25T02:21:30.840Z,16.92
2018-06-25T02:22:30.837Z,16.25
2018-06-25T02:23:30.840Z,16.35
2018-06-25T02:24:30.842Z,16.63
2018-06-25T02:25:30.833Z,16.82
2018-06-25T02:26:30.830Z,16.82
2018-06-25T02:27:30.830Z,16.92
2018-06-25T02:28:30.829Z,17.02
2018-06-25T02:29:30.824Z,17.30
2018-06-25T02:30:30.829Z,17.97
2018-06-25T02:31:30.822Z,17.88
2018-06-25T02:32:30.822Z,18.35
2018-06-25T02:33:30.819Z,18.35
2018-06-25T02:34:30.816Z,18.26
2018-06-25T02:35:30.816Z,18.64
2018-06-25T02:36:30.814Z,18.93
2018-06-25T02:37:30.812Z,19.31
2018-06-25T02:38:30.859Z,19.31
2018-06-25T02:39:30.814Z,19.60
2018-06-25T02:40:30.805Z,19.69
2018-06-25T02:41:30.800Z,19.79
2018-06-25T02:42:30.807Z,20.17
2018-06-25T02:43:30.801Z,20.17
2018-06-25T02:44:30.800Z,20.36
2018-06-25T02:45:30.796Z,20.36
2018-06-25T02:46:30.796Z,20.65
2018-06-25T02:47:30.793Z,20.46
2018-06-25T02:48:30.791Z,21.12
2018-06-25T02:49:30.794Z,21.61
2018-06-25T02:50:30.787Z,22.08
2018-06-25T02:51:30.787Z,21.70
2018-06-25T02:52:30.785Z,21.61
2018-06-25T02:53:30.783Z,22.75
2018-06-25T02:54:30.781Z,24.48
2018-06-25T02:55:30.780Z,24.95
2018-06-25T02:56:30.778Z,24.85
2018-06-25T02:57:30.774Z,24.48
2018-06-25T02:58:30.772Z,23.99
2018-06-25T02:59:30.772Z,23.71
2018-06-25T03:00:30.771Z,23.71
2018-06-25T03:01:30.768Z,22.94
2018-06-25T03:02:30.772Z,22.37
2018-06-25T03:03:30.764Z,22.56
2018-06-25T03:04:30.761Z,22.08
2018-06-25T03:05:30.758Z,22.08
2018-06-25T03:06:30.758Z,21.98
2018-06-25T03:07:30.760Z,21.51
2018-06-25T03:08:30.766Z,21.41
2018-06-25T03:09:30.759Z,21.70
2018-06-25T03:10:30.754Z,22.08
2018-06-25T03:11:30.752Z,21.89
2018-06-25T03:12:30.747Z,22.08
2018-06-25T03:13:30.747Z,21.89
2018-06-25T03:14:30.756Z,22.47
2018-06-25T03:15:30.742Z,22.75
2018-06-25T03:16:30.740Z,22.75
2018-06-25T03:17:30.737Z,23.42
2018-06-25T03:18:30.737Z,24.38
2018-06-25T03:19:30.734Z,24.95
2018-06-25T03:20:30.734Z,26.10
2018-06-25T03:21:30.740Z,27.44
2018-06-25T03:22:30.729Z,27.44
2018-06-25T03:23:30.727Z,27.53
2018-06-25T03:24:30.727Z,27.72
2018-06-25T03:25:30.724Z,27.53
2018-06-25T03:26:30.732Z,27.72
2018-06-25T03:27:30.721Z,27.62
2018-06-25T03:28:30.718Z,27.25
2018-06-25T03:29:30.717Z,27.44
2018-06-25T03:30:30.717Z,26.96
2018-06-25T03:31:30.714Z,26.19
2018-06-25T03:32:30.712Z,26.18
2018-06-25T03:33:30.711Z,26.10
2018-06-25T03:34:30.709Z,25.81
2018-06-25T03:35:30.707Z,26.00
2018-06-25T03:36:30.703Z,25.90
2018-06-25T03:37:30.704Z,26.00
2018-06-25T03:38:30.766Z,26.00
2018-06-25T03:39:30.701Z,26.67
2018-06-25T03:40:30.745Z,28.01
2018-06-25T03:41:30.697Z,27.53
2018-06-25T03:42:30.692Z,28.20
2018-06-25T03:43:30.693Z,27.44
2018-06-25T03:44:30.691Z,28.20
2018-06-25T03:45:30.688Z,28.30
2018-06-25T03:46:30.688Z,28.11
2018-06-25T03:47:30.684Z,27.91
2018-06-25T03:48:30.684Z,27.82
2018-06-25T03:49:30.681Z,27.91
2018-06-25T03:50:30.683Z,28.68
2018-06-25T03:51:30.682Z,29.16
2018-06-25T03:52:30.673Z,29.54
2018-06-25T03:53:30.685Z,28.97
2018-06-25T03:54:30.671Z,29.16
2018-06-25T03:55:30.675Z,29.08
2018-06-25T03:56:30.667Z,28.97
2018-06-25T03:57:30.670Z,29.65
2018-06-25T03:58:30.665Z,30.80
2018-06-25T03:59:30.664Z,31.47
2018-06-25T04:00:30.662Z,31.27
2018-06-25T04:01:30.661Z,32.03
2018-06-25T04:02:30.659Z,33.46
2018-06-25T04:03:30.657Z,34.53
2018-06-25T04:04:30.654Z,34.72
2018-06-25T04:05:30.655Z,34.32
2018-06-25T04:06:30.652Z,35.20
2018-06-25T04:07:30.651Z,35.29
2018-06-25T04:08:30.649Z,35.68
2018-06-25T04:09:30.647Z,35.39
2018-06-25T04:10:30.647Z,35.20
2018-06-25T04:11:30.643Z,35.29
2018-06-25T04:12:30.643Z,35.20
2018-06-25T04:13:30.644Z,35.28
2018-06-25T04:14:30.638Z,35.20
2018-06-25T04:15:30.638Z,36.06
2018-06-25T04:16:30.637Z,36.92
2018-06-25T04:17:30.635Z,36.25
2018-06-25T04:18:30.639Z,35.68
2018-06-25T04:19:30.636Z,35.58
2018-06-25T04:20:30.629Z,37.57
2018-06-25T04:21:30.632Z,38.43
2018-06-25T04:22:30.633Z,38.35
2018-06-25T04:23:30.625Z,38.64
2018-06-25T04:24:30.622Z,38.45
2018-06-25T04:25:30.622Z,38.34
2018-06-25T04:26:30.621Z,38.35
2018-06-25T04:27:30.625Z,38.26
2018-06-25T04:28:30.618Z,38.83
2018-06-25T04:29:30.616Z,39.10
2018-06-25T04:30:30.617Z,39.98
2018-06-25T04:31:30.614Z,40.26
2018-06-25T04:32:30.610Z,40.26
2018-06-25T04:33:30.610Z,40.34
2018-06-25T04:34:30.608Z,40.17
2018-06-25T04:35:30.604Z,39.60
2018-06-25T04:36:30.606Z,39.50
2018-06-25T04:37:30.606Z,39.98
2018-06-25T04:38:30.602Z,40.17
2018-06-25T04:39:30.600Z,40.94
2018-06-25T04:40:30.598Z,41.80
2018-06-25T04:41:30.596Z,41.32
2018-06-25T04:42:30.595Z,40.94
2018-06-25T04:43:30.595Z,41.61
2018-06-25T04:44:30.592Z,43.23
2018-06-25T04:45:30.594Z,43.52
2018-06-25T04:46:30.589Z,44.19
2018-06-25T04:47:30.588Z,44.76
2018-06-25T04:48:30.585Z,44.48
2018-06-25T04:49:30.584Z,44.95
2018-06-25T04:50:30.593Z,45.15
2018-06-25T04:51:30.586Z,44.76
2018-06-25T04:52:30.585Z,44.38
2018-06-25T04:53:30.581Z,45.62
2018-06-25T04:54:30.578Z,45.91
2018-06-25T04:55:30.578Z,45.24
2018-06-25T04:56:30.574Z,45.05
2018-06-25T04:57:30.572Z,44.48
2018-06-25T04:58:30.571Z,43.62
2018-06-25T04:59:30.570Z,45.43
2018-06-25T05:00:30.568Z,45.34
2018-06-25T05:01:30.566Z,44.86
2018-06-25T05:02:30.567Z,46.96
2018-06-25T05:03:30.565Z,46.96
2018-06-25T05:04:30.563Z,47.25
2018-06-25T05:05:30.563Z,47.06
2018-06-25T05:06:30.615Z,46.30
2018-06-25T05:07:30.559Z,46.67
2018-06-25T05:08:30.555Z,45.24
2018-06-25T05:09:30.554Z,45.15
2018-06-25T05:10:30.554Z,45.15
2018-06-25T05:11:30.557Z,47.16
2018-06-25T05:12:30.555Z,46.96
2018-06-25T05:13:30.550Z,46.96
2018-06-25T05:14:30.549Z,47.92
2018-06-25T05:15:30.549Z,48.13
2018-06-25T05:16:30.544Z,49.57
2018-06-25T05:17:30.547Z,52.70
2018-06-25T05:18:30.544Z,53.88
2018-06-25T05:19:30.544Z,51.65
2018-06-25T05:20:30.542Z,50.21
2018-06-25T05:21:30.538Z,49.84
2018-06-25T05:22:30.541Z,50.50
2018-06-25T05:23:30.589Z,51.36
2018-06-25T05:24:30.536Z,51.65
2018-06-25T05:25:30.539Z,52.42
2018-06-25T05:26:30.534Z,52.99
2018-06-25T05:27:30.535Z,53.97
2018-06-25T05:28:30.531Z,55.12
2018-06-25T05:29:30.534Z,58.56
2018-06-25T05:30:30.532Z,59.30
2018-06-25T05:31:30.529Z,59.20
2018-06-25T05:32:30.527Z,58.47
2018-06-25T05:33:30.526Z,58.18
2018-06-25T05:34:30.526Z,56.27
2018-06-25T05:35:30.523Z,55.88
2018-06-25T05:36:30.526Z,57.42
2018-06-25T05:37:30.525Z,59.33
2018-06-25T05:38:30.523Z,59.62
2018-06-25T05:39:30.522Z,60.00
2018-06-25T05:40:30.520Z,60.19
2018-06-25T05:41:30.518Z,60.19
2018-06-25T05:42:30.515Z,60.89
2018-06-25T05:43:30.517Z,61.15
2018-06-25T05:44:30.516Z,60.70
2018-06-25T05:45:30.515Z,62.43
2018-06-25T05:46:30.514Z,62.59
2018-06-25T05:47:30.518Z,62.43
2018-06-25T05:48:30.513Z,62.52
2018-06-25T05:49:30.512Z,61.54
2018-06-25T05:50:30.511Z,62.97
2018-06-25T05:51:30.510Z,64.15
2018-06-25T05:52:30.511Z,64.63
2018-06-25T05:53:30.509Z,64.25
2018-06-25T05:54:30.510Z,65.30
2018-06-25T05:55:30.508Z,63.96
2018-06-25T05:56:30.506Z,65.11
2018-06-25T05:57:30.505Z,64.53
2018-06-25T05:58:30.505Z,66.22
2018-06-25T05:59:30.504Z,67.60
2018-06-25T06:00:30.504Z,65.97
2018-06-25T06:01:30.502Z,67.69
2018-06-25T06:02:30.504Z,67.50
2018-06-25T06:03:30.503Z,67.41
2018-06-25T06:04:30.501Z,67.41
2018-06-25T06:05:30.501Z,66.06
2018-06-25T06:06:30.501Z,67.41
2018-06-25T06:07:30.502Z,67.88
2018-06-25T06:08:30.500Z,68.46
2018-06-25T06:09:30.501Z,68.46
2018-06-25T06:10:30.507Z,68.27
2018-06-25T06:11:30.507Z,67.50
2018-06-25T06:12:30.504Z,68.40
2018-06-25T06:13:30.500Z,68.87
2018-06-25T06:14:30.499Z,69.13
2018-06-25T06:15:30.499Z,66.64
2018-06-25T06:16:30.498Z,67.50
2018-06-25T06:17:30.499Z,67.11
2018-06-25T06:18:30.497Z,66.93
2018-06-25T06:19:30.502Z,68.94
2018-06-25T06:20:30.499Z,69.42
2018-06-25T06:21:30.500Z,70.18
2018-06-25T06:22:30.500Z,68.17
2018-06-25T06:23:30.497Z,66.35
2018-06-25T06:24:30.579Z,68.21
2018-06-25T06:25:30.503Z,69.35
2018-06-25T06:26:30.488Z,69.17
2018-06-25T06:27:30.493Z,71.94
2018-06-25T06:28:30.495Z,71.17
2018-06-25T06:29:30.493Z,72.23
2018-06-25T06:30:30.491Z,68.74
2018-06-25T06:31:30.491Z,67.63
2018-06-25T06:32:30.491Z,67.41
2018-06-25T06:33:30.495Z,67.69
2018-06-25T06:34:30.490Z,66.83
2018-06-25T06:35:30.492Z,66.35
2018-06-25T06:36:30.489Z,67.02
2018-06-25T06:37:30.489Z,66.93
2018-06-25T06:38:30.490Z,66.25
2018-06-25T06:39:30.490Z,66.06
2018-06-25T06:40:30.489Z,66.25
2018-06-25T06:41:30.488Z,65.78
2018-06-25T06:42:30.488Z,65.78
2018-06-25T06:43:30.488Z,65.11
2018-06-25T06:44:30.488Z,65.68
2018-06-25T06:45:30.520Z,65.78
2018-06-25T06:46:30.487Z,66.25
2018-06-25T06:47:30.489Z,66.16
2018-06-25T06:48:30.487Z,66.06
2018-06-25T06:49:30.486Z,65.11
2018-06-25T06:50:30.486Z,65.11
2018-06-25T06:51:30.555Z,66.25
2018-06-25T06:52:30.487Z,65.11
2018-06-25T06:53:30.486Z,65.49
2018-06-25T06:54:30.486Z,65.20
2018-06-25T06:55:30.485Z,65.49
2018-06-25T06:56:30.485Z,66.96
2018-06-25T06:57:30.535Z,67.11
2018-06-25T06:58:30.485Z,65.39
2018-06-25T06:59:30.482Z,65.39
2018-06-25T07:00:30.486Z,66.58
2018-06-25T07:01:30.484Z,66.06
2018-06-25T07:02:30.485Z,65.58
2018-06-25T07:03:30.500Z,63.86
2018-06-25T07:04:30.483Z,63.39
2018-06-25T07:05:30.485Z,63.00
2018-06-25T07:06:30.571Z,63.39
2018-06-25T07:07:30.484Z,64.63
2018-06-25T07:08:30.484Z,64.25
2018-06-25T07:09:30.483Z,65.11
2018-06-25T07:10:30.483Z,63.48
2018-06-25T07:11:30.483Z,63.76
2018-06-25T07:12:30.482Z,64.25
2018-06-25T07:13:30.483Z,65.42
2018-06-25T07:14:30.482Z,65.11
2018-06-25T07:15:30.481Z,63.96
2018-06-25T07:16:30.483Z,63.86
2018-06-25T07:17:30.480Z,63.86
2018-06-25T07:18:30.480Z,63.10
2018-06-25T07:19:30.478Z,64.25
2018-06-25T07:20:30.482Z,64.82
2018-06-25T07:21:30.479Z,64.47
2018-06-25T07:22:30.479Z,66.96
2018-06-25T07:23:30.478Z,69.07
2018-06-25T07:24:30.480Z,69.26
2018-06-25T07:25:30.478Z,70.21
2018-06-25T07:26:30.481Z,69.54
2018-06-25T07:27:30.482Z,68.11
2018-06-25T07:28:30.480Z,67.25
2018-06-25T07:29:30.479Z,67.25
2018-06-25T07:30:30.477Z,69.93
2018-06-25T07:31:30.482Z,70.03
2018-06-25T07:32:30.480Z,69.68
2018-06-25T07:33:30.477Z,69.83
2018-06-25T07:34:30.478Z,71.50
2018-06-25T07:35:30.478Z,71.31
2018-06-25T07:36:30.478Z,72.07
2018-06-25T07:37:30.531Z,70.35
2018-06-25T07:38:30.531Z,72.27
2018-06-25T07:39:30.485Z,70.70
2018-06-25T07:40:30.548Z,74.62
2018-06-25T07:41:30.477Z,75.01
2018-06-25T07:42:30.523Z,75.71
2018-06-25T07:43:30.484Z,76.62
2018-06-25T07:44:30.479Z,77.00
2018-06-25T07:45:30.484Z,78.05
2018-06-25T07:46:30.478Z,79.68
2018-06-25T07:47:30.478Z,79.68
2018-06-25T07:48:30.578Z,80.93
2018-06-25T07:49:30.478Z,81.66
2018-06-25T07:50:30.480Z,80.55
2018-06-25T07:51:30.479Z,79.97
2018-06-25T07:52:30.723Z,81.41
2018-06-25T07:53:30.509Z,82.23
2018-06-25T07:54:30.480Z,81.79
2018-06-25T07:55:30.482Z,83.61
2018-06-25T07:56:30.478Z,84.19
2018-06-25T07:57:30.479Z,84.09
2018-06-25T07:58:30.481Z,84.09
2018-06-25T07:59:30.479Z,84.86
2018-06-25T08:00:30.493Z,85.05
2018-06-25T08:01:30.481Z,84.19
2018-06-25T08:02:30.487Z,84.09
2018-06-25T08:03:30.484Z,84.28
2018-06-25T08:04:30.502Z,81.85
2018-06-25T08:05:30.585Z,83.48
2018-06-25T08:06:30.484Z,81.95
2018-06-25T08:07:30.484Z,84.05
2018-06-25T08:08:30.488Z,82.23
2018-06-25T08:09:30.484Z,83.29
2018-06-25T08:10:30.486Z,85.30
2018-06-25T08:11:30.490Z,83.86
2018-06-25T08:12:30.485Z,85.39
2018-06-25T08:13:30.483Z,85.01
2018-06-25T08:14:30.484Z,83.95
2018-06-25T08:15:30.486Z,85.11
2018-06-25T08:16:30.488Z,86.78
2018-06-25T08:17:30.485Z,86.30
2018-06-25T08:18:30.486Z,86.97
2018-06-25T08:19:30.493Z,86.21
2018-06-25T08:20:30.718Z,87.07
2018-06-25T08:21:30.523Z,87.45
2018-06-25T08:22:30.487Z,87.26
2018-06-25T08:23:30.489Z,87.68
2018-06-25T08:24:30.488Z,87.82
2018-06-25T08:25:30.489Z,87.92
2018-06-25T08:26:30.487Z,88.59
2018-06-25T08:27:30.589Z,88.69
2018-06-25T08:28:30.493Z,88.69
2018-06-25T08:29:30.491Z,88.79
2018-06-25T08:30:30.520Z,88.21
2018-06-25T08:31:30.491Z,89.17
2018-06-25T08:32:30.493Z,88.88
2018-06-25T08:33:30.500Z,88.40
2018-06-25T08:34:30.553Z,89.17
2018-06-25T08:35:30.799Z,88.79
2018-06-25T08:36:30.497Z,90.37
2018-06-25T08:37:30.497Z,89.89
2018-06-25T08:38:30.497Z,90.42
2018-06-25T08:39:30.502Z,89.75
2018-06-25T08:40:30.499Z,89.99
2018-06-25T08:41:30.499Z,89.55
2018-06-25T08:42:30.501Z,90.27
2018-06-25T08:43:30.524Z,90.66
2018-06-25T08:44:30.505Z,90.61
2018-06-25T08:45:30.503Z,90.75
2018-06-25T08:46:30.503Z,90.27
2018-06-25T08:47:30.508Z,90.66
2018-06-25T08:48:30.506Z,91.23
2018-06-25T08:49:30.507Z,91.99
2018-06-25T08:50:30.514Z,91.71
2018-06-25T08:51:30.628Z,92.19
2018-06-25T08:52:30.514Z,92.38
2018-06-25T08:53:30.513Z,92.76
2018-06-25T08:54:30.514Z,92.76
2018-06-25T08:55:30.516Z,92.57
2018-06-25T08:56:30.516Z,92.86
2018-06-25T08:57:30.516Z,93.15
2018-06-25T08:58:30.519Z,93.15
2018-06-25T08:59:30.521Z,93.24
2018-06-25T09:00:30.528Z,92.96
2018-06-25T09:01:30.524Z,92.96
2018-06-25T09:02:30.738Z,94.06
2018-06-25T09:03:30.531Z,93.24
2018-06-25T09:04:30.697Z,94.45
2018-06-25T09:05:30.532Z,94.11
2018-06-25T09:06:30.611Z,94.30
2018-06-25T09:07:30.720Z,95.17
2018-06-25T09:08:30.537Z,94.88
2018-06-25T09:09:30.549Z,94.49
2018-06-25T09:10:31.029Z,95.55
2018-06-25T09:11:30.640Z,95.36
2018-06-25T09:12:30.549Z,94.98
2018-06-25T09:13:30.547Z,95.17
2018-06-25T09:14:30.559Z,95.31
2018-06-25T09:15:30.621Z,95.70
2018-06-25T09:16:30.554Z,96.03
2018-06-25T09:17:30.557Z,95.26
2018-06-25T09:18:30.584Z,95.21
2018-06-25T09:19:30.563Z,94.98
2018-06-25T09:20:30.562Z,95.70
2018-06-25T09:21:30.567Z,95.17
2018-06-25T09:22:30.596Z,95.03
2018-06-25T09:23:30.824Z,94.98
2018-06-25T09:24:30.578Z,95.07
2018-06-25T09:25:30.804Z,94.64
2018-06-25T09:26:30.569Z,94.88
2018-06-25T09:27:30.803Z,94.78
2018-06-25T09:28:30.572Z,95.12
2018-06-25T09:29:30.969Z,95.07
2018-06-25T09:30:30.580Z,94.98
2018-06-25T09:31:30.576Z,95.07
2018-06-25T09:32:30.582Z,95.50
2018-06-25T09:33:30.585Z,95.60
2018-06-25T09:34:30.583Z,95.89
2018-06-25T09:35:30.910Z,95.70
2018-06-25T09:36:30.587Z,95.31
2018-06-25T09:37:30.765Z,95.31
2018-06-25T09:38:30.734Z,95.65
2018-06-25T09:39:30.594Z,96.22
2018-06-25T09:40:30.593Z,95.65
2018-06-25T09:41:30.723Z,95.94
2018-06-25T09:42:30.596Z,95.55
2018-06-25T09:43:30.598Z,95.89
2018-06-25T09:44:30.877Z,95.70
2018-06-25T09:45:30.611Z,95.60
2018-06-25T09:46:30.607Z,95.55
2018-06-25T09:47:30.610Z,96.22
2018-06-25T09:48:30.704Z,95.26
2018-06-25T09:49:30.609Z,95.45
2018-06-25T09:50:30.611Z,95.45
2018-06-25T09:51:30.612Z,95.12
2018-06-25T09:52:30.613Z,95.70
2018-06-25T09:53:30.616Z,96.37
2018-06-25T09:54:30.619Z,95.31
2018-06-25T09:55:30.624Z,95.45
2018-06-25T09:56:30.621Z,95.50
2018-06-25T09:57:30.622Z,95.12
2018-06-25T09:58:30.626Z,95.12
2018-06-25T09:59:30.626Z,95.74
2018-06-25T10:00:30.628Z,95.17
2018-06-25T10:01:30.631Z,95.31
2018-06-25T10:02:30.634Z,95.45
2018-06-25T10:03:30.699Z,95.84
2018-06-25T10:04:30.636Z,95.60
2018-06-25T10:05:30.639Z,95.74
2018-06-25T10:06:30.641Z,95.45
2018-06-25T10:07:30.644Z,95.17
2018-06-25T10:08:30.972Z,95.26
2018-06-25T10:09:38.644Z,96.32
2018-06-25T10:11:31.497Z,96.85
2018-06-25T10:12:30.657Z,96.17
2018-06-25T10:13:30.660Z,94.25
2018-06-25T10:14:30.661Z,95.94
2018-06-25T10:15:30.662Z,96.03
2018-06-25T10:16:30.675Z,95.21
2018-06-25T10:17:30.667Z,94.87
2018-06-25T10:18:30.669Z,95.40
2018-06-25T10:19:30.683Z,94.10
2018-06-25T10:20:30.673Z,95.40
2018-06-25T10:21:30.719Z,94.63
2018-06-25T10:22:30.680Z,94.54
2018-06-25T10:23:30.684Z,94.63
2018-06-25T10:24:30.684Z,94.68
2018-06-25T10:25:30.687Z,94.34
2018-06-25T10:26:30.690Z,94.15
2018-06-25T10:27:30.693Z,94.00
2018-06-25T10:28:30.705Z,93.86
2018-06-25T10:29:30.714Z,94.82
2018-06-25T10:30:30.701Z,94.44
2018-06-25T10:31:30.704Z,94.20
2018-06-25T10:32:30.710Z,94.68
2018-06-25T10:33:30.712Z,93.33
2018-06-25T10:34:30.767Z,94.06
2018-06-25T10:35:30.716Z,93.86
2018-06-25T10:36:30.797Z,94.34
2018-06-25T10:37:30.727Z,93.76
2018-06-25T10:38:30.724Z,94.20
2018-06-25T10:39:30.727Z,95.36
2018-06-25T10:40:30.730Z,96.70
2018-06-25T10:41:30.734Z,95.94
2018-06-25T10:42:30.820Z,95.26
2018-06-25T10:43:30.741Z,95.36
2018-06-25T10:44:30.742Z,95.59
2018-06-25T10:45:30.745Z,95.74
2018-06-25T10:46:30.744Z,93.57
2018-06-25T10:47:30.868Z,95.06
2018-06-25T10:48:30.760Z,94.73
2018-06-25T10:49:30.760Z,95.59
2018-06-25T10:50:30.760Z,96.32
2018-06-25T10:51:30.766Z,95.64
2018-06-25T10:52:30.773Z,94.96
2018-06-25T10:53:30.773Z,94.00
2018-06-25T10:54:30.776Z,94.87
2018-06-25T10:55:30.776Z,95.36
2018-06-25T10:56:30.778Z,94.78
2018-06-25T10:57:30.777Z,95.31
2018-06-25T10:58:30.783Z,94.39
2018-06-25T10:59:30.880Z,94.20
2018-06-25T11:00:30.790Z,96.03
2018-06-25T11:01:30.791Z,94.96
2018-06-25T11:02:30.844Z,94.39
2018-06-25T11:03:30.801Z,94.68
2018-06-25T11:04:30.809Z,95.36
2018-06-25T11:05:30.805Z,95.11
2018-06-25T11:06:30.887Z,94.15
2018-06-25T11:07:30.851Z,94.73
2018-06-25T11:08:30.818Z,94.92
2018-06-25T11:09:30.881Z,94.77
2018-06-25T11:10:30.819Z,93.90
2018-06-25T11:11:30.825Z,94.68
2018-06-25T11:12:30.825Z,93.96
2018-06-25T11:13:30.838Z,95.06
2018-06-25T11:14:30.834Z,95.21
2018-06-25T11:15:30.837Z,95.31
2018-06-25T11:16:30.837Z,94.24
2018-06-25T11:17:30.841Z,95.21
2018-06-25T11:18:30.844Z,94.20
2018-06-25T11:19:30.850Z,92.99
2018-06-25T11:20:30.851Z,94.20
2018-06-25T11:21:30.854Z,94.00
2018-06-25T11:22:30.856Z,94.00
2018-06-25T11:23:30.943Z,93.52
2018-06-25T11:24:30.864Z,94.29
2018-06-25T11:25:30.913Z,93.13
2018-06-25T11:26:30.869Z,93.56
2018-06-25T11:27:30.900Z,94.09
2018-06-25T11:28:30.871Z,92.45
2018-06-25T11:29:30.879Z,92.45
2018-06-25T11:30:30.880Z,94.04
2018-06-25T11:31:30.884Z,93.23
2018-06-25T11:32:30.888Z,94.20
2018-06-25T11:33:30.890Z,92.84
2018-06-25T11:34:30.968Z,93.04
2018-06-25T11:35:30.899Z,94.92
2018-06-25T11:36:30.901Z,93.95
2018-06-25T11:37:30.905Z,95.69
2018-06-25T11:38:30.909Z,96.03
2018-06-25T11:39:30.958Z,94.82
2018-06-25T11:40:30.912Z,94.63
2018-06-25T11:41:30.918Z,94.73
2018-06-25T11:42:30.929Z,94.34
2018-06-25T11:43:30.924Z,94.00
2018-06-25T11:44:30.926Z,93.95
2018-06-25T11:45:30.974Z,92.55
2018-06-25T11:46:30.932Z,92.07
2018-06-25T11:47:30.937Z,92.65
2018-06-25T11:48:30.938Z,90.66
2018-06-25T11:49:30.943Z,90.47
2018-06-25T11:50:30.961Z,89.50
2018-06-25T11:51:30.959Z,90.61
2018-06-25T11:52:30.952Z,90.52
2018-06-25T11:53:30.956Z,91.29
2018-06-25T11:54:30.964Z,90.03
2018-06-25T11:55:30.964Z,91.39
2018-06-25T11:56:30.966Z,91.63
2018-06-25T11:57:30.970Z,93.18
2018-06-25T11:58:30.973Z,93.37
2018-06-25T11:59:30.977Z,92.89
2018-06-25T12:00:30.984Z,91.63
2018-06-25T12:01:30.985Z,92.36
2018-06-25T12:02:31.077Z,93.08
2018-06-25T12:03:30.996Z,93.18
2018-06-25T12:04:30.994Z,93.61
2018-06-25T12:05:30.996Z,92.49
2018-06-25T12:06:31.000Z,90.66
2018-06-25T12:07:31.004Z,90.51
2018-06-25T12:08:31.017Z,89.54
2018-06-25T12:09:31.012Z,89.74
2018-06-25T12:10:31.039Z,90.90
2018-06-25T12:11:31.023Z,89.01
2018-06-25T12:12:31.096Z,89.29
2018-06-25T12:13:31.026Z,89.11
2018-06-25T12:14:31.038Z,88.53
2018-06-25T12:15:31.035Z,89.11
2018-06-25T12:16:31.037Z,89.11
2018-06-25T12:17:31.066Z,87.75
2018-06-25T12:18:31.046Z,87.75
2018-06-25T12:19:31.051Z,87.70
2018-06-25T12:20:31.060Z,87.95
2018-06-25T12:21:31.059Z,89.01
2018-06-25T12:22:31.063Z,88.62
2018-06-25T12:23:31.068Z,88.62
2018-06-25T12:24:31.071Z,88.04
2018-06-25T12:25:31.080Z,89.20
2018-06-25T12:26:31.078Z,89.01
2018-06-25T12:27:31.084Z,89.15
2018-06-25T12:28:31.089Z,89.06
2018-06-25T12:29:31.091Z,89.55
2018-06-25T12:30:31.096Z,90.37
2018-06-25T12:31:31.102Z,91.29
2018-06-25T12:32:31.104Z,90.08
2018-06-25T12:33:31.108Z,90.47
2018-06-25T12:34:31.112Z,90.47
2018-06-25T12:35:31.116Z,90.80
2018-06-25T12:36:31.119Z,89.25
2018-06-25T12:37:31.127Z,88.48
2018-06-25T12:38:31.132Z,88.48
2018-06-25T12:39:31.133Z,88.62
2018-06-25T12:40:31.139Z,88.23
2018-06-25T12:41:31.195Z,88.04
2018-06-25T12:42:31.145Z,88.71
2018-06-25T12:43:31.151Z,88.18
2018-06-25T12:44:31.156Z,87.85
2018-06-25T12:45:31.161Z,87.46
2018-06-25T12:46:31.164Z,87.36
2018-06-25T12:47:31.170Z,88.57
2018-06-25T12:48:31.172Z,0.00
2018-06-25T12:49:31.178Z,0.00
2018-06-25T12:50:31.182Z,87.46
2018-06-25T12:51:31.189Z,87.95
2018-06-25T12:52:31.277Z,87.90
2018-06-25T12:53:31.207Z,87.90